Time;durP1;ratioP1;P1;durP2;ratioP2;P2;SDS_P1;SDS_P2;PMS_P1;PMS_P2;Temp;Humidity;BMP_temperature;BMP_pressure;BME280_temperature;BME280_humidity;BME280_pressure;Samples;Min_cycle;Max_cycle;Signal;HPM_P1;HPM_P2
2022/06/21 00:00:32;;;;;;;9.50;6.90;;;;;;;14.90;100.00;93025.44;2102812;28;20119;-82
2022/06/21 00:01:34;;;;;;;11.10;6.75;;;;;;;14.88;100.00;93014.34;2111706;28;20028;-85
2022/06/21 00:02:35;;;;;;;7.88;6.82;;;;;;;14.92;100.00;93011.53;2098220;28;20021;-86
2022/06/21 00:03:36;;;;;;;8.00;7.22;;;;;;;14.99;100.00;93013.94;2100844;28;20023;-85
2022/06/21 00:04:37;;;;;;;13.95;7.20;;;;;;;14.93;100.00;93021.13;2106270;28;20063;-87
2022/06/21 00:05:42;;;;;;;10.82;7.68;;;;;;;14.83;100.00;93018.38;2098326;28;20026;-84
2022/06/21 00:06:43;;;;;;;8.50;6.63;;;;;;;14.84;100.00;93030.66;2107159;28;20048;-85
2022/06/21 00:07:44;;;;;;;8.52;6.82;;;;;;;14.80;100.00;93018.53;2114960;28;20093;-85
2022/06/21 00:08:46;;;;;;;10.20;6.85;;;;;;;14.85;100.00;93021.38;2106571;28;20426;-85
2022/06/21 00:09:47;;;;;;;8.02;5.60;;;;;;;14.89;100.00;93020.50;2098019;28;20017;-84
2022/06/21 00:10:49;;;;;;;8.77;6.68;;;;;;;14.84;100.00;93016.47;2104682;28;20049;-85
2022/06/21 00:11:50;;;;;;;7.65;6.28;;;;;;;14.84;100.00;93016.47;2115046;28;20065;-86
2022/06/21 00:12:51;;;;;;;7.25;6.20;;;;;;;14.88;100.00;93017.03;2114747;28;20500;-82
2022/06/21 00:13:52;;;;;;;10.05;7.28;;;;;;;15.00;100.00;93012.75;2114597;28;20053;-85
2022/06/21 00:14:54;;;;;;;10.07;6.60;;;;;;;15.10;100.00;93019.63;2106188;28;20673;-82
2022/06/21 00:15:58;;;;;;;8.73;6.57;;;;;;;15.06;100.00;93019.03;2093645;28;20478;-83
2022/06/21 00:16:59;;;;;;;9.73;6.68;;;;;;;14.99;100.00;93019.31;2090969;28;20351;-85
2022/06/21 00:18:00;;;;;;;7.30;6.30;;;;;;;14.86;100.00;93017.50;2089863;28;20116;-85
2022/06/21 00:19:18;;;;;;;11.43;7.15;;;;;;;14.74;100.00;93017.59;2090073;28;20032;-84
2022/06/21 00:20:23;;;;;;;11.68;6.15;;;;;;;14.76;100.00;93029.44;2094385;28;20025;-86
2022/06/21 00:21:30;;;;;;;7.95;6.18;;;;;;;14.83;100.00;93021.06;2098497;28;20020;-86
2022/06/21 00:22:32;;;;;;;8.27;6.70;;;;;;;14.90;100.00;93013.91;2092044;28;20036;-85
2022/06/21 00:23:33;;;;;;;6.57;5.97;;;;;;;14.86;100.00;93024.81;2106502;28;20086;-85
2022/06/21 00:24:34;;;;;;;6.25;5.65;;;;;;;14.81;100.00;93020.78;2115018;28;20016;-83
2022/06/21 00:25:35;;;;;;;8.25;6.25;;;;;;;14.82;100.00;93022.28;2114633;28;20100;-82
2022/06/21 00:26:36;;;;;;;13.20;7.00;;;;;;;14.91;100.00;93018.09;2097670;28;20028;-85
2022/06/21 00:27:38;;;;;;;8.48;6.82;;;;;;;14.93;100.00;93005.72;2098079;28;20024;-83
2022/06/21 00:28:39;;;;;;;7.70;6.90;;;;;;;14.92;100.00;93003.44;2098025;28;20635;-84
2022/06/21 00:29:40;;;;;;;8.10;6.38;;;;;;;14.93;100.00;93011.09;2104605;28;20602;-85
2022/06/21 00:30:42;;;;;;;9.25;6.60;;;;;;;14.94;100.00;93009.91;2110130;28;20049;-87
2022/06/21 00:31:48;;;;;;;7.75;6.65;;;;;;;14.89;100.00;93010.50;2114892;28;20020;-84
2022/06/21 00:32:54;;;;;;;8.77;6.65;;;;;;;14.95;100.00;93002.56;2112308;28;20023;-83
2022/06/21 00:33:57;;;;;;;7.18;6.47;;;;;;;14.90;100.00;92998.53;2098596;28;20089;-84
2022/06/21 00:34:58;;;;;;;10.68;7.10;;;;;;;14.84;100.00;93003.75;2098141;28;20028;-83
2022/06/21 00:36:02;;;;;;;8.82;6.22;;;;;;;14.85;100.00;93001.81;2097843;28;20020;-83
2022/06/21 00:37:03;;;;;;;7.78;6.90;;;;;;;14.90;100.00;93003.16;2099722;28;20021;-81
2022/06/21 00:38:04;;;;;;;7.72;6.25;;;;;;;14.98;100.00;93007.06;2106272;28;20023;-85
2022/06/21 00:39:07;;;;;;;21.83;7.30;;;;;;;14.93;100.00;93002.28;2106170;28;20153;-86
2022/06/21 00:40:30;;;;;;;8.63;7.05;;;;;;;14.71;100.00;93007.75;2098317;28;20039;-84
2022/06/21 00:41:50;;;;;;;8.93;7.20;;;;;;;14.67;100.00;93004.44;2101151;28;20035;-83
2022/06/21 00:42:57;;;;;;;7.15;6.45;;;;;;;14.71;100.00;93007.75;2100528;28;20029;-87
2022/06/21 00:44:01;;;;;;;7.88;7.05;;;;;;;14.68;100.00;92997.88;2091243;28;20454;-86
2022/06/21 00:45:29;;;;;;;9.80;6.35;;;;;;;14.76;100.00;93002.53;2099021;28;20473;-87
2022/06/21 00:46:37;;;;;;;8.93;6.20;;;;;;;14.79;100.00;93004.34;2107531;28;20294;-84
2022/06/21 00:47:48;;;;;;;6.95;5.90;;;;;;;14.79;100.00;93003.56;2107387;28;20063;-84
2022/06/21 00:48:50;;;;;;;9.32;6.50;;;;;;;14.83;100.00;92996.09;2107808;28;20032;-86
2022/06/21 00:50:18;;;;;;;8.65;6.50;;;;;;;14.69;100.00;93000.09;2106493;28;20496;-84
2022/06/21 00:51:25;;;;;;;7.28;5.50;;;;;;;14.74;100.00;92998.78;2106510;28;20098;-82
2022/06/21 00:52:51;;;;;;;8.02;5.90;;;;;;;14.57;100.00;92998.28;2099729;28;20051;-82
2022/06/21 00:53:59;;;;;;;8.07;6.45;;;;;;;14.57;100.00;92996.34;2103600;28;20030;-82
2022/06/21 00:55:10;;;;;;;7.38;6.35;;;;;;;14.58;100.00;92989.78;2099352;28;20028;-87
2022/06/21 00:56:43;;;;;;;6.97;5.90;;;;;;;14.54;100.00;92994.53;2100649;28;20628;-86
2022/06/21 00:57:52;;;;;;;7.78;6.30;;;;;;;14.47;100.00;92988.66;2109214;27;20031;-84
2022/06/21 00:58:54;;;;;;;8.00;6.05;;;;;;;14.49;100.00;92991.69;2111708;28;20039;-86
2022/06/21 00:59:58;;;;;;;8.27;6.15;;;;;;;14.44;100.00;92984.16;2106127;28;20099;-87
2022/06/21 01:01:13;;;;;;;8.63;5.38;;;;;;;14.45;100.00;92972.97;2098688;28;20032;-85
2022/06/21 01:02:19;;;;;;;8.45;6.90;;;;;;;14.32;100.00;92972.34;2099683;28;20083;-82
2022/06/21 01:03:24;;;;;;;6.68;5.63;;;;;;;14.45;100.00;92961.47;2097230;28;20062;-86
2022/06/21 01:04:38;;;;;;;8.40;6.35;;;;;;;14.34;100.00;92972.63;2097863;28;20024;-86
2022/06/21 01:05:43;;;;;;;6.15;5.55;;;;;;;14.30;100.00;92972.00;2105381;28;20027;-85
2022/06/21 01:06:47;;;;;;;10.00;6.30;;;;;;;14.21;100.00;92969.28;2113148;28;20121;-83
2022/06/21 01:07:53;;;;;;;6.70;6.00;;;;;;;14.21;100.00;92969.28;2103167;28;20095;-85
2022/06/21 01:09:26;;;;;;;11.38;6.32;;;;;;;14.14;100.00;92962.25;2098290;28;20033;-83
2022/06/21 01:10:28;;;;;;;6.60;5.85;;;;;;;14.18;100.00;92956.72;2093230;27;20035;-86
2022/06/21 01:11:37;;;;;;;7.40;5.80;;;;;;;14.18;100.00;92948.66;2106159;28;20468;-84
2022/06/21 01:12:48;;;;;;;6.13;5.53;;;;;;;14.27;100.00;92948.72;2108344;27;20076;-86
2022/06/21 01:13:52;;;;;;;6.55;5.97;;;;;;;14.21;100.00;92950.47;2107183;28;20119;-83
2022/06/21 01:14:58;;;;;;;7.07;5.70;;;;;;;14.15;100.00;92947.63;2097938;28;20094;-82
2022/06/21 01:15:59;;;;;;;6.50;5.45;;;;;;;14.11;100.00;92941.63;2106997;28;20024;-83
2022/06/21 01:17:01;;;;;;;7.32;5.68;;;;;;;14.08;100.00;92945.94;2114508;27;20380;-83
2022/06/21 01:18:06;;;;;;;7.03;5.82;;;;;;;14.08;100.00;92943.25;2106218;28;20443;-86
2022/06/21 01:19:19;;;;;;;8.52;5.82;;;;;;;13.91;100.00;92941.22;2098560;28;20032;-87
2022/06/21 01:20:25;;;;;;;6.22;5.40;;;;;;;13.81;100.00;92943.88;2109312;27;20128;-84
2022/06/21 01:21:30;;;;;;;10.10;5.70;;;;;;;13.77;100.00;92948.63;2106570;28;20146;-86
2022/06/21 01:23:04;;;;;;;7.00;5.45;;;;;;;13.80;100.00;92949.69;2094800;28;20037;-87
2022/06/21 01:24:12;;;;;;;7.18;5.60;;;;;;;13.63;100.00;92949.16;2106835;28;20676;-87
2022/06/21 01:25:44;;;;;;;7.30;5.82;;;;;;;13.56;100.00;92950.16;2106886;28;20097;-84
2022/06/21 01:26:53;;;;;;;7.05;5.30;;;;;;;13.49;100.00;92949.66;2105852;28;20122;-87
2022/06/21 01:27:56;;;;;;;8.45;5.85;;;;;;;13.45;100.00;92946.34;2103680;28;20468;-84
2022/06/21 01:29:01;;;;;;;8.13;5.13;;;;;;;13.54;100.00;92954.47;2105857;28;20043;-86
2022/06/21 01:30:05;;;;;;;7.05;5.78;;;;;;;13.42;100.00;92947.22;2109182;28;21268;-88
2022/06/21 01:31:07;;;;;;;7.28;5.68;;;;;;;13.41;100.00;92945.72;2121147;27;20023;-83
2022/06/21 01:32:08;;;;;;;6.95;6.00;;;;;;;13.38;100.00;92950.03;2097683;28;20035;-83
2022/06/21 01:33:16;;;;;;;5.95;5.35;;;;;;;13.24;100.00;92955.91;2089551;28;20052;-85
2022/06/21 01:34:22;;;;;;;7.30;5.30;;;;;;;13.29;100.00;92950.72;2097927;28;20028;-85
2022/06/21 01:35:46;;;;;;;6.03;5.43;;;;;;;13.26;100.00;92956.22;2107221;28;20044;-85
2022/06/21 01:37:00;;;;;;;6.50;5.35;;;;;;;13.15;100.00;92961.16;2114369;27;20110;-83
2022/06/21 01:38:04;;;;;;;9.48;5.38;;;;;;;13.11;100.00;92956.66;2100981;28;20459;-84
2022/06/21 01:39:10;;;;;;;7.82;5.25;;;;;;;13.05;100.00;92961.09;2100412;27;20110;-87
2022/06/21 01:40:19;;;;;;;7.93;6.07;;;;;;;12.98;100.00;92965.94;2105969;28;20684;-85
2022/06/21 01:41:33;;;;;;;11.00;5.93;;;;;;;13.04;100.00;92967.66;2102763;27;20492;-86
2022/06/21 01:42:48;;;;;;;5.75;5.15;;;;;;;12.97;100.00;92961.78;2114178;28;20074;-83
2022/06/21 01:43:55;;;;;;;7.32;5.22;;;;;;;12.97;100.00;92959.09;2116227;27;20020;-84
2022/06/21 01:45:00;;;;;;;7.57;5.65;;;;;;;13.05;100.00;92955.72;2114351;28;20043;-86
2022/06/21 01:46:05;;;;;;;6.00;5.40;;;;;;;13.04;100.00;92954.25;2098120;28;20020;-84
2022/06/21 01:47:11;;;;;;;9.52;5.82;;;;;;;13.03;100.00;92960.03;2090275;28;20075;-84
2022/06/21 01:48:23;;;;;;;6.53;5.90;;;;;;;13.07;100.00;92956.03;2104352;28;20115;-84
2022/06/21 01:49:27;;;;;;;6.13;5.35;;;;;;;13.13;100.00;92952.81;2099279;28;20047;-83
2022/06/21 01:50:28;;;;;;;7.20;6.00;;;;;;;13.03;100.00;92955.41;2094279;28;20021;-88
2022/06/21 01:51:38;;;;;;;8.63;6.50;;;;;;;13.09;100.00;92952.94;2097296;28;20044;-84
2022/06/21 01:52:44;;;;;;;8.93;6.07;;;;;;;13.19;100.00;92945.69;2106814;28;20024;-84
2022/06/21 01:53:45;;;;;;;9.98;6.10;;;;;;;13.09;100.00;92955.63;2107527;27;20043;-84
2022/06/21 01:55:02;;;;;;;6.97;6.05;;;;;;;13.18;100.00;92947.63;2105549;28;20103;-84
2022/06/21 01:56:12;;;;;;;9.50;6.88;;;;;;;13.18;100.00;92946.88;2101760;28;20028;-83
2022/06/21 01:57:14;;;;;;;10.32;6.53;;;;;;;13.14;100.00;92946.25;2113365;27;20508;-82
2022/06/21 01:58:21;;;;;;;9.27;6.32;;;;;;;13.08;100.00;92944.13;2108020;28;20062;-83
2022/06/21 01:59:28;;;;;;;6.82;6.22;;;;;;;13.07;100.00;92950.66;2102595;28;20028;-86
2022/06/21 02:00:32;;;;;;;7.15;5.97;;;;;;;13.04;100.00;92946.19;2098982;28;20021;-83
2022/06/21 02:01:46;;;;;;;7.20;6.03;;;;;;;12.96;100.00;92944.91;2102905;28;20030;-86
2022/06/21 02:02:54;;;;;;;7.10;6.35;;;;;;;13.06;100.00;92946.50;2093964;28;20029;-85
2022/06/21 02:03:58;;;;;;;8.05;6.40;;;;;;;13.17;100.00;92948.06;2106658;28;20028;-86
2022/06/21 02:05:09;;;;;;;8.93;6.90;;;;;;;13.12;100.00;92957.41;2114746;28;20027;-84
2022/06/21 02:06:13;;;;;;;6.47;5.88;;;;;;;13.05;100.00;92958.41;2116938;27;20460;-84
2022/06/21 02:07:20;;;;;;;7.22;6.38;;;;;;;12.93;100.00;92963.81;2112324;28;20109;-84
2022/06/21 02:08:25;;;;;;;8.75;6.13;;;;;;;12.83;100.00;92957.63;2111563;28;20027;-84
2022/06/21 02:09:33;;;;;;;6.75;6.05;;;;;;;12.87;100.00;92952.91;2115872;27;20487;-84
2022/06/21 02:10:39;;;;;;;6.38;5.78;;;;;;;12.91;100.00;92952.78;2106436;28;20069;-85
2022/06/21 02:11:47;;;;;;;8.57;6.18;;;;;;;12.90;100.00;92952.00;2098431;28;20477;-84
2022/06/21 02:15:31;;;;;;;7.35;5.63;;;;;;;12.87;100.00;92952.16;2133232;27;19912;-80
2022/06/21 02:16:33;;;;;;;7.53;6.10;;;;;;;12.90;100.00;92951.25;2113003;28;20501;-81
2022/06/21 02:17:42;;;;;;;8.95;5.78;;;;;;;12.81;100.00;92944.63;2104961;28;20099;-78
2022/06/21 02:18:55;;;;;;;7.55;6.47;;;;;;;12.89;100.00;92949.78;2114246;28;20026;-79
2022/06/21 02:19:56;;;;;;;6.30;5.70;;;;;;;12.81;100.00;92950.00;2117145;27;20032;-79
2022/06/21 02:21:04;;;;;;;8.23;6.38;;;;;;;12.72;100.00;92944.53;2118348;28;20431;-78
2022/06/21 02:22:18;;;;;;;6.60;5.60;;;;;;;12.67;100.00;92949.72;2105830;28;20047;-79
2022/06/21 02:23:22;;;;;;;7.55;6.07;;;;;;;12.64;100.00;92943.28;2108174;28;20399;-79
2022/06/21 02:24:28;;;;;;;7.75;6.18;;;;;;;12.72;100.00;92941.88;2113460;28;20030;-79
2022/06/21 02:25:29;;;;;;;7.38;5.88;;;;;;;12.71;100.00;92945.75;2113344;28;20023;-78
2022/06/21 02:26:33;;;;;;;6.78;6.07;;;;;;;12.70;100.00;92936.19;2112987;28;20028;-79
2022/06/21 02:27:35;;;;;;;7.38;5.40;;;;;;;12.77;100.00;92935.19;2104797;28;20028;-78
2022/06/21 02:28:37;;;;;;;7.20;5.20;;;;;;;12.80;100.00;92931.66;2104824;28;20507;-78
2022/06/21 02:29:40;;;;;;;10.60;5.45;;;;;;;12.77;100.00;92930.59;2104565;28;20112;-79
2022/06/21 02:30:43;;;;;;;8.45;6.00;;;;;;;12.68;100.00;92929.75;2104993;28;20028;-79
2022/06/21 02:31:46;;;;;;;7.25;5.90;;;;;;;12.67;100.00;92926.34;2113244;28;20024;-79
2022/06/21 02:32:49;;;;;;;7.43;6.13;;;;;;;12.63;100.00;92914.97;2113138;28;20026;-79
2022/06/21 02:33:53;;;;;;;5.93;5.22;;;;;;;12.55;100.00;92924.41;2113260;28;20068;-79
2022/06/21 02:35:03;;;;;;;5.45;4.95;;;;;;;12.55;100.00;92914.44;2104950;28;20078;-79
2022/06/21 02:36:20;;;;;;;7.13;5.55;;;;;;;12.57;100.00;92911.34;2113022;28;20023;-78
2022/06/21 02:37:21;;;;;;;6.45;5.80;;;;;;;12.56;100.00;92918.66;2118340;27;20023;-77
2022/06/21 02:38:25;;;;;;;6.28;5.68;;;;;;;12.72;100.00;92912.38;2121438;27;20027;-79
2022/06/21 02:39:30;;;;;;;8.57;5.60;;;;;;;12.80;100.00;92921.69;2130188;27;20662;-79
2022/06/21 02:40:40;;;;;;;7.20;5.18;;;;;;;12.77;100.00;92927.16;2112567;28;20047;-78
2022/06/21 02:41:43;;;;;;;6.05;4.90;;;;;;;12.70;100.00;92924.72;2107054;28;20040;-78
2022/06/21 02:42:47;;;;;;;6.53;5.50;;;;;;;12.58;100.00;92927.00;2109410;27;20745;-79
2022/06/21 02:43:54;;;;;;;6.25;4.90;;;;;;;12.56;100.00;92921.31;2113245;28;20360;-78
2022/06/21 02:45:21;;;;;;;6.80;5.40;;;;;;;12.55;100.00;92919.06;2123179;27;20495;-78
2022/06/21 02:46:26;;;;;;;8.25;6.20;;;;;;;12.53;100.00;92922.19;2104158;28;20025;-78
2022/06/21 02:47:32;;;;;;;5.63;5.00;;;;;;;12.46;100.00;92911.69;2105435;28;20471;-79
2022/06/21 02:48:38;;;;;;;7.47;5.28;;;;;;;12.35;100.00;92913.97;2112679;28;20433;-78
2022/06/21 02:49:52;;;;;;;8.68;5.40;;;;;;;12.24;100.00;92921.56;2113653;28;20080;-79
2022/06/21 02:51:01;;;;;;;6.18;5.28;;;;;;;12.28;100.00;92922.22;2114830;28;20076;-78
2022/06/21 02:52:12;;;;;;;9.77;5.22;;;;;;;12.26;100.00;92919.22;2114062;28;20027;-78
2022/06/21 02:53:27;;;;;;;7.18;5.18;;;;;;;12.16;100.00;92922.97;2112481;28;20051;-78
2022/06/21 02:54:42;;;;;;;7.20;5.18;;;;;;;12.10;100.00;92915.47;2108261;28;20099;-78
2022/06/21 02:55:50;;;;;;;6.88;5.60;;;;;;;12.15;100.00;92919.56;2106107;28;20028;-78
2022/06/21 02:56:55;;;;;;;10.45;5.68;;;;;;;12.18;100.00;92910.66;2106246;28;20024;-78
2022/06/21 02:58:31;;;;;;;7.25;5.20;;;;;;;12.30;100.00;92911.84;2112671;28;20107;-78
2022/06/21 02:59:36;;;;;;;8.57;5.75;;;;;;;12.26;100.00;92905.84;2100101;28;20968;-78
2022/06/21 03:00:38;;;;;;;6.82;5.43;;;;;;;12.25;100.00;92909.69;2113333;28;20024;-78
2022/06/21 03:01:46;;;;;;;6.93;5.82;;;;;;;12.17;100.00;92908.41;2112820;28;20020;-78
2022/06/21 03:02:47;;;;;;;6.25;5.53;;;;;;;12.13;100.00;92911.22;2105451;28;20103;-79
2022/06/21 03:03:50;;;;;;;8.77;4.97;;;;;;;12.14;100.00;92914.63;2111190;28;20111;-79
2022/06/21 03:05:01;;;;;;;8.35;5.60;;;;;;;12.16;100.00;92918.41;2104575;28;20047;-78
2022/06/21 03:06:07;;;;;;;6.60;5.15;;;;;;;12.21;100.00;92914.41;2106973;28;20109;-78
2022/06/21 03:07:14;;;;;;;7.95;5.50;;;;;;;12.27;100.00;92907.31;2104832;28;20545;-78
2022/06/21 03:08:17;;;;;;;6.75;6.05;;;;;;;12.27;100.00;92912.69;2097804;28;20021;-78
2022/06/21 03:09:22;;;;;;;6.68;5.53;;;;;;;12.22;100.00;92905.19;2104414;28;20035;-78
2022/06/21 03:10:31;;;;;;;7.95;5.65;;;;;;;12.16;100.00;92902.31;2113786;27;20024;-79
2022/06/21 03:11:40;;;;;;;8.40;5.40;;;;;;;12.30;100.00;92899.19;2130282;27;20023;-78
2022/06/21 03:12:42;;;;;;;6.07;5.07;;;;;;;12.34;100.00;92909.78;2121008;28;20046;-78
2022/06/21 03:13:43;;;;;;;5.85;5.25;;;;;;;12.31;100.00;92898.00;2105401;28;20051;-78
2022/06/21 03:14:46;;;;;;;7.57;5.88;;;;;;;12.30;100.00;92901.84;2095644;28;20455;-78
2022/06/21 03:15:59;;;;;;;5.68;5.07;;;;;;;12.29;100.00;92903.06;2087872;28;20037;-79
2022/06/21 03:17:02;;;;;;;6.55;5.70;;;;;;;12.26;100.00;92906.59;2090879;28;20025;-78
2022/06/21 03:18:08;;;;;;;6.03;5.28;;;;;;;12.19;100.00;92898.00;2087858;28;20493;-79
2022/06/21 03:19:23;;;;;;;5.50;5.00;;;;;;;12.19;100.00;92896.06;2088919;28;20104;-78
2022/06/21 03:20:24;;;;;;;8.35;5.00;;;;;;;12.17;100.00;92895.78;2103432;28;20492;-79
2022/06/21 03:21:34;;;;;;;6.35;5.10;;;;;;;12.17;100.00;92887.72;2092595;28;20099;-78
2022/06/21 03:22:39;;;;;;;5.90;5.32;;;;;;;12.18;100.00;92888.47;2093886;28;20022;-79
2022/06/21 03:23:45;;;;;;;7.00;4.78;;;;;;;12.15;100.00;92889.31;2105016;28;20016;-79
2022/06/21 03:24:50;;;;;;;5.35;4.85;;;;;;;12.13;100.00;92886.34;2118177;28;20016;-79
2022/06/21 03:26:01;;;;;;;7.15;4.65;;;;;;;12.05;100.00;92880.44;2091428;28;20020;-79
2022/06/21 03:27:15;;;;;;;6.38;4.57;;;;;;;12.05;100.00;92883.13;2084859;28;20033;-78
2022/06/21 03:28:37;;;;;;;9.52;4.97;;;;;;;12.16;100.00;92874.75;2098217;28;20032;-78
2022/06/21 03:29:38;;;;;;;5.82;5.22;;;;;;;12.12;100.00;92877.56;2093105;28;20016;-79
2022/06/21 03:30:40;;;;;;;7.00;5.28;;;;;;;12.13;100.00;92873.69;2097609;28;20110;-78
2022/06/21 03:31:48;;;;;;;4.95;4.47;;;;;;;12.14;100.00;92880.53;2081974;28;20029;-78
2022/06/21 03:32:52;;;;;;;7.13;4.78;;;;;;;12.14;100.00;92880.53;2092233;28;20021;-79
2022/06/21 03:33:56;;;;;;;7.07;5.07;;;;;;;12.17;100.00;92882.38;2098740;28;20023;-78
2022/06/21 03:34:57;;;;;;;5.80;4.70;;;;;;;12.18;100.00;92873.16;2098844;28;20431;-79
2022/06/21 03:36:02;;;;;;;6.40;5.03;;;;;;;12.20;100.00;92870.03;2106437;28;20028;-79
2022/06/21 03:37:05;;;;;;;5.10;4.60;;;;;;;12.17;100.00;92870.91;2098946;28;20017;-78
2022/06/21 03:38:06;;;;;;;5.40;4.90;;;;;;;12.16;100.00;92866.72;2099277;28;20115;-78
2022/06/21 03:39:16;;;;;;;8.65;6.40;;;;;;;12.16;100.00;92869.38;2093579;28;20033;-79
2022/06/21 03:41:43;;;;;;;7.00;6.30;;;;;;;12.15;100.00;92870.56;2113252;28;20452;-81
2022/06/21 03:42:48;;;;;;;6.43;5.80;;;;;;;12.18;100.00;92877.75;2098930;28;20021;-81
2022/06/21 03:43:59;;;;;;;8.45;5.68;;;;;;;12.19;100.00;92871.97;2089534;28;20032;-78
2022/06/21 03:45:32;;;;;;;8.02;5.43;;;;;;;12.15;100.00;92876.69;2093023;28;20496;-78
2022/06/21 03:46:58;;;;;;;7.18;5.00;;;;;;;12.16;100.00;92872.84;2090874;28;20029;-78
2022/06/21 03:48:28;;;;;;;5.90;5.38;;;;;;;12.23;100.00;92871.84;2097683;28;20033;-79
2022/06/21 03:49:45;;;;;;;6.93;4.97;;;;;;;12.26;100.00;92871.75;2087202;28;20074;-78
2022/06/21 03:50:54;;;;;;;5.53;4.97;;;;;;;12.35;100.00;92871.09;2104263;28;20020;-78
2022/06/21 03:51:56;;;;;;;6.93;5.47;;;;;;;12.31;100.00;92873.13;2105519;28;20028;-79
2022/06/21 03:53:20;;;;;;;6.97;5.07;;;;;;;12.32;100.00;92872.69;2081240;28;20029;-79
2022/06/21 03:54:35;;;;;;;7.85;5.07;;;;;;;12.32;100.00;92875.38;2104314;28;20143;-78
2022/06/21 03:55:48;;;;;;;5.30;4.85;;;;;;;12.36;100.00;92872.56;2108573;28;20016;-79
2022/06/21 03:56:57;;;;;;;6.70;5.32;;;;;;;12.40;100.00;92878.56;2100004;28;20071;-79
2022/06/21 03:58:07;;;;;;;7.38;5.18;;;;;;;12.40;100.00;92878.56;2100281;28;20435;-78
2022/06/21 03:59:35;;;;;;;5.90;5.30;;;;;;;12.45;100.00;92882.63;2097979;28;20576;-79
2022/06/21 04:00:43;;;;;;;7.80;4.90;;;;;;;12.41;100.00;92885.44;2089682;28;20829;-78
2022/06/21 04:01:51;;;;;;;7.72;5.20;;;;;;;12.43;100.00;92876.97;2101733;27;20036;-79
2022/06/21 04:03:01;;;;;;;5.65;5.05;;;;;;;12.49;100.00;92875.97;2099147;28;20053;-79
2022/06/21 04:04:34;;;;;;;7.38;5.55;;;;;;;12.50;100.00;92871.34;2084314;28;20052;-79
2022/06/21 04:05:48;;;;;;;6.15;5.00;;;;;;;12.54;100.00;92867.38;2091537;28;20376;-79
2022/06/21 04:07:26;;;;;;;5.93;4.65;;;;;;;12.50;100.00;92866.75;2100086;28;20060;-79
2022/06/21 04:08:40;;;;;;;5.47;4.85;;;;;;;12.51;100.00;92864.81;2095471;28;20024;-79
2022/06/21 04:10:01;;;;;;;8.93;5.13;;;;;;;12.44;100.00;92873.84;2101651;28;20025;-79
2022/06/21 04:11:39;;;;;;;5.93;4.70;;;;;;;12.55;100.00;92876.16;2106940;28;22101;-79
2022/06/21 04:12:52;;;;;;;9.77;5.47;;;;;;;12.57;100.00;92871.13;2097781;28;20032;-78
2022/06/21 04:14:06;;;;;;;7.00;5.72;;;;;;;12.52;100.00;92869.00;2107702;28;20519;-79
2022/06/21 04:15:15;;;;;;;6.65;5.95;;;;;;;12.54;100.00;92864.69;2085033;28;20029;-79
2022/06/21 04:16:35;;;;;;;6.60;5.78;;;;;;;12.58;100.00;92868.00;2083901;28;20063;-79
2022/06/21 04:18:21;;;;;;;7.00;4.90;;;;;;;12.66;100.00;92868.53;2095113;28;20379;-79
2022/06/21 04:19:50;;;;;;;5.38;4.90;;;;;;;12.61;100.00;92877.13;2078626;28;20037;-78
2022/06/21 04:21:02;;;;;;;6.65;4.82;;;;;;;12.66;100.00;92878.50;2104571;28;20031;-79
2022/06/21 04:22:27;;;;;;;6.85;5.28;;;;;;;12.67;100.00;92877.31;2109961;27;20050;-79
2022/06/21 04:23:37;;;;;;;5.65;4.50;;;;;;;12.66;100.00;92884.63;2101505;28;20016;-79
2022/06/21 04:24:47;;;;;;;5.95;4.90;;;;;;;12.74;100.00;92885.88;2098860;28;20016;-79
2022/06/21 04:26:08;;;;;;;6.22;5.07;;;;;;;12.71;100.00;92883.31;2105056;28;20031;-78
2022/06/21 04:27:27;;;;;;;5.38;4.80;;;;;;;12.62;100.00;92883.97;2101671;28;20028;-79
2022/06/21 04:28:40;;;;;;;8.05;4.90;;;;;;;12.69;100.00;92889.13;2103658;27;20103;-79
2022/06/21 04:29:53;;;;;;;4.50;4.10;;;;;;;12.67;100.00;92885.34;2104079;28;20411;-79
2022/06/21 04:30:57;;;;;;;5.45;4.90;;;;;;;12.67;100.00;92891.47;2107285;28;20027;-78
2022/06/21 04:32:04;;;;;;;6.22;4.95;;;;;;;12.67;100.00;92894.16;2090294;28;20045;-79
2022/06/21 04:33:19;;;;;;;4.85;4.20;;;;;;;12.74;100.00;92899.28;2106973;28;20028;-79
2022/06/21 04:34:29;;;;;;;7.05;5.15;;;;;;;12.78;100.00;92896.50;2112992;28;20061;-80
2022/06/21 04:35:33;;;;;;;;;;;;;;;12.84;100.00;92894.75;2106639;28;20028;-78
2022/06/21 04:36:41;;;;;;;6.90;4.93;;;;;;;12.86;100.00;92897.72;2089181;28;19982;-79
2022/06/21 04:37:48;;;;;;;5.82;5.25;;;;;;;12.88;100.00;92895.38;2098703;28;20430;-79
2022/06/21 04:39:01;;;;;;;6.97;4.72;;;;;;;12.88;100.00;92894.63;2103487;28;20097;-79
2022/06/21 04:40:21;;;;;;;4.95;4.45;;;;;;;13.05;100.00;92891.31;2085427;28;20472;-79
2022/06/21 04:41:25;;;;;;;5.90;4.82;;;;;;;13.08;100.00;92895.84;2107068;28;20519;-80
2022/06/21 04:42:49;;;;;;;11.20;4.95;;;;;;;13.03;100.00;92896.38;2097907;28;20111;-77
2022/06/21 04:43:57;;;;;;;7.13;5.03;;;;;;;13.02;100.00;92889.50;2100908;28;20078;-79
2022/06/21 04:45:05;;;;;;;5.05;4.55;;;;;;;13.02;100.00;92892.19;2106328;28;20020;-79
2022/06/21 04:46:34;;;;;;;5.93;4.68;;;;;;;13.03;100.00;92893.69;2108677;27;20020;-78
2022/06/21 04:47:55;;;;;;;6.70;4.65;;;;;;;13.05;100.00;92895.94;2118993;27;20023;-77
2022/06/21 04:49:17;;;;;;;5.95;4.70;;;;;;;13.04;100.00;92892.53;2098479;28;20052;-78
2022/06/21 04:50:23;;;;;;;8.68;4.55;;;;;;;13.10;100.00;92892.69;2108898;28;20055;-78
2022/06/21 04:51:38;;;;;;;7.20;4.85;;;;;;;13.13;100.00;92894.53;2104352;28;20035;-79
2022/06/21 04:52:50;;;;;;;6.55;4.43;;;;;;;13.23;100.00;92887.31;2102748;28;20071;-78
2022/06/21 04:53:58;;;;;;;5.95;4.80;;;;;;;13.19;100.00;92889.34;2110573;27;20057;-78
2022/06/21 04:54:59;;;;;;;7.75;5.28;;;;;;;13.22;100.00;92897.28;2099833;28;20024;-78
2022/06/21 04:56:21;;;;;;;5.88;5.10;;;;;;;13.24;100.00;92894.16;2104898;28;20530;-78
2022/06/21 04:57:27;;;;;;;6.97;4.70;;;;;;;13.25;100.00;92890.28;2116026;27;20027;-80
2022/06/21 04:58:29;;;;;;;5.90;5.00;;;;;;;13.42;100.00;92898.91;2113257;28;20106;-79
2022/06/21 04:59:33;;;;;;;4.95;4.55;;;;;;;13.50;100.00;92886.72;2098712;28;20021;-78
2022/06/21 05:00:34;;;;;;;4.95;4.45;;;;;;;13.53;100.00;92893.91;2105712;28;20122;-79
2022/06/21 05:01:37;;;;;;;6.13;5.03;;;;;;;13.51;100.00;92885.53;2097860;28;20028;-78
2022/06/21 05:02:46;;;;;;;9.20;5.03;;;;;;;13.46;100.00;92884.16;2087332;28;20024;-78
2022/06/21 05:03:48;;;;;;;10.57;4.85;;;;;;;13.56;100.00;92890.31;2092541;28;20028;-79
2022/06/21 05:04:54;;;;;;;10.32;4.70;;;;;;;13.59;100.00;92886.75;2109887;27;20966;-77
2022/06/21 05:05:56;;;;;;;5.95;5.07;;;;;;;13.56;100.00;92891.09;2104727;28;20027;-78
2022/06/21 05:07:04;;;;;;;7.15;4.78;;;;;;;13.62;100.00;92885.13;2091729;28;20027;-79
2022/06/21 05:08:23;;;;;;;6.07;4.57;;;;;;;13.69;100.00;92874.13;2105986;28;20364;-78
2022/06/21 05:09:31;;;;;;;5.55;5.05;;;;;;;13.99;100.00;92886.03;2104467;28;20028;-79
2022/06/21 05:10:36;;;;;;;7.22;5.28;;;;;;;13.88;100.00;92886.44;2101949;28;20036;-78
2022/06/21 05:11:37;;;;;;;5.50;4.70;;;;;;;13.89;100.00;92893.31;2094988;28;20115;-78
2022/06/21 05:12:42;;;;;;;6.05;5.45;;;;;;;14.00;100.00;92885.56;2106824;28;20016;-78
2022/06/21 05:13:50;;;;;;;7.30;5.47;;;;;;;14.09;100.00;92891.00;2105502;28;20054;-78
2022/06/21 05:14:56;;;;;;;7.32;5.82;;;;;;;14.07;100.00;92898.75;2086479;28;20111;-79
2022/06/21 05:16:01;;;;;;;10.05;7.25;;;;;;;14.09;100.00;92895.63;2089955;28;20024;-78
2022/06/21 05:17:10;;;;;;;7.47;6.68;;;;;;;14.19;100.00;92893.72;2103175;28;20023;-79
2022/06/21 05:18:17;;;;;;;7.82;6.70;;;;;;;14.01;100.00;92899.78;2105851;28;20024;-78
2022/06/21 05:19:27;;;;;;;9.38;6.55;;;;;;;14.02;100.00;92895.91;2105520;28;20024;-79
2022/06/21 05:20:32;;;;;;;11.95;6.30;;;;;;;14.14;100.00;92899.69;2097600;28;20029;-79
2022/06/21 05:21:44;;;;;;;10.27;6.80;;;;;;;14.11;100.00;92901.31;2102560;27;20049;-79
2022/06/21 05:22:49;;;;;;;8.45;6.20;;;;;;;14.27;100.00;92892.25;2107195;28;20051;-79
2022/06/21 05:23:50;;;;;;;9.98;7.38;;;;;;;14.39;100.00;92891.38;2104777;28;20024;-78